Time;durP1;ratioP1;P1;durP2;ratioP2;P2;SDS_P1;SDS_P2;PMS_P1;PMS_P2;Temp;Humidity;BMP_temperature;BMP_pressure;BME280_temperature;BME280_humidity;BME280_pressure;Samples;Min_cycle;Max_cycle;Signal;HPM_P1;HPM_P2
2021/11/13 00:01:00;;;;;;;42.53;19.30;;;;;;;4.94;90.44;100949.63;5012009;28;20047;-77
2021/11/13 00:03:26;;;;;;;32.58;16.88;;;;;;;4.96;90.29;100952.09;5026302;28;20683;-76
2021/11/13 00:05:51;;;;;;;38.55;17.50;;;;;;;4.97;89.81;100941.69;4955144;28;20038;-76
2021/11/13 00:08:17;;;;;;;34.28;17.75;;;;;;;4.91;90.36;100942.13;4983366;28;20041;-77
2021/11/13 00:10:42;;;;;;;29.85;15.63;;;;;;;4.98;90.65;100950.22;5009564;28;20043;-76
2021/11/13 00:13:09;;;;;;;38.75;17.45;;;;;;;4.95;90.29;100948.69;5002320;28;20032;-77
2021/11/13 00:15:36;;;;;;;36.08;17.88;;;;;;;4.98;89.86;100950.22;4926718;28;20032;-76
2021/11/13 00:18:01;;;;;;;33.20;15.80;;;;;;;5.04;89.71;100947.16;5018546;28;20041;-76
2021/11/13 00:20:28;;;;;;;38.58;16.63;;;;;;;5.03;89.37;100937.84;5001534;28;20108;-76
2021/11/13 00:22:58;;;;;;;33.40;16.70;;;;;;;4.96;90.10;100952.09;5003597;28;20031;-76
2021/11/13 00:25:24;;;;;;;34.65;16.80;;;;;;;5.03;89.73;100937.84;4924978;28;20047;-78
2021/11/13 00:27:50;;;;;;;40.75;17.88;;;;;;;4.93;90.18;100942.03;5001450;28;20042;-78
2021/11/13 00:30:17;;;;;;;35.45;16.10;;;;;;;4.83;90.92;100940.16;5004927;28;20041;-77
2021/11/13 00:32:43;;;;;;;33.55;16.55;;;;;;;4.82;90.82;100941.09;5000340;28;20036;-77
2021/11/13 00:35:09;;;;;;;39.58;17.65;;;;;;;4.87;91.65;100938.16;4922625;28;20040;-76
2021/11/13 00:37:37;;;;;;;36.63;17.05;;;;;;;4.85;91.75;100934.91;5016839;28;20028;-76
2021/11/13 00:40:03;;;;;;;36.08;17.63;;;;;;;4.82;91.85;100920.53;4990283;28;20114;-76
2021/11/13 00:42:30;;;;;;;34.80;17.90;;;;;;;4.85;91.54;100924.63;5011250;28;20035;-77
2021/11/13 00:44:56;;;;;;;37.35;17.02;;;;;;;4.83;91.90;100923.91;5003642;28;20408;-77
2021/11/13 00:47:21;;;;;;;35.92;17.85;;;;;;;4.79;92.18;100923.34;4949892;28;20398;-78
2021/11/13 00:49:47;;;;;;;32.50;18.15;;;;;;;4.86;92.04;100923.69;5007628;28;20047;-76
2021/11/13 00:52:12;;;;;;;37.70;18.27;;;;;;;4.80;92.14;100921.56;4935336;28;20051;-77
2021/11/13 00:54:38;;;;;;;33.80;18.25;;;;;;;4.80;92.74;100930.13;4997858;28;20043;-77
2021/11/13 00:57:07;;;;;;;39.63;18.27;;;;;;;4.77;92.08;100920.06;5024231;28;20068;-78
2021/11/13 00:59:34;;;;;;;36.15;18.80;;;;;;;4.78;92.34;100919.09;4990636;28;20627;-79
2021/11/13 01:02:00;;;;;;;37.60;17.23;;;;;;;4.84;92.17;100918.66;4925793;28;20185;-78
2021/11/13 01:04:25;;;;;;;43.00;18.98;;;;;;;4.81;92.38;100918.09;4983713;28;20039;-78
2021/11/13 01:06:51;;;;;;;32.67;17.25;;;;;;;4.86;92.00;100916.00;5006487;28;20138;-78
2021/11/13 01:09:17;;;;;;;37.58;18.05;;;;;;;4.85;92.52;100911.78;5003856;28;20126;-77
2021/11/13 01:11:43;;;;;;;36.30;17.25;;;;;;;4.86;92.70;100905.72;4989800;28;20420;-77
2021/11/13 01:14:08;;;;;;;37.58;17.70;;;;;;;4.78;93.17;100908.84;4924623;28;20044;-78
2021/11/13 01:16:34;;;;;;;40.50;19.85;;;;;;;4.79;93.23;100909.66;4926955;28;20113;-78
2021/11/13 01:19:00;;;;;;;42.53;20.30;;;;;;;4.86;93.92;100903.16;4972073;28;20040;-77
2021/11/13 01:21:25;;;;;;;37.95;18.75;;;;;;;4.86;94.52;100895.44;5005284;28;20051;-76
2021/11/13 01:23:52;;;;;;;38.72;18.02;;;;;;;4.99;94.70;100891.00;4985464;28;20046;-77
2021/11/13 01:26:20;;;;;;;48.45;19.13;;;;;;;4.91;94.83;100893.31;4985944;28;20456;-76
2021/11/13 01:28:45;;;;;;;42.35;20.25;;;;;;;4.88;95.55;100884.09;4984853;28;20043;-76
2021/11/13 01:31:14;;;;;;;44.35;20.42;;;;;;;4.91;96.40;100871.94;5019662;28;20066;-77
2021/11/13 01:33:42;;;;;;;42.65;19.95;;;;;;;4.95;96.47;100861.28;4920483;28;20045;-77
2021/11/13 01:36:07;;;;;;;40.38;19.35;;;;;;;4.92;96.29;100869.25;5010453;28;20146;-78
2021/11/13 01:38:36;;;;;;;40.90;19.42;;;;;;;5.01;96.64;100858.28;4988885;28;20027;-76
2021/11/13 01:41:03;;;;;;;43.78;20.90;;;;;;;4.92;96.63;100853.03;4994156;28;20574;-76
2021/11/13 01:43:32;;;;;;;43.42;21.02;;;;;;;5.01;97.62;100847.16;5008400;28;20043;-78
2021/11/13 01:46:00;;;;;;;45.92;21.08;;;;;;;4.95;97.35;100845.88;4986792;28;20039;-76
2021/11/13 01:48:26;;;;;;;46.38;20.95;;;;;;;4.98;98.16;100835.38;4992359;28;20040;-77
2021/11/13 01:50:53;;;;;;;48.10;21.75;;;;;;;5.06;98.50;100833.00;4992791;28;20526;-76
2021/11/13 01:53:18;;;;;;;45.78;21.45;;;;;;;5.01;98.70;100836.88;4927220;28;20047;-75
2021/11/13 01:55:44;;;;;;;47.10;21.58;;;;;;;5.01;98.72;100831.75;4992658;28;20044;-75
2021/11/13 01:58:12;;;;;;;46.00;21.60;;;;;;;5.06;99.43;100825.31;4922607;28;20126;-76
2021/11/13 02:00:41;;;;;;;49.30;21.80;;;;;;;5.04;99.22;100828.94;5020576;28;20044;-76
2021/11/13 02:03:07;;;;;;;48.08;20.92;;;;;;;5.05;99.55;100822.88;5010422;28;20047;-77
2021/11/13 02:05:33;;;;;;;44.85;21.55;;;;;;;5.19;99.73;100820.03;5010576;28;20019;-75
2021/11/13 02:07:59;;;;;;;43.80;20.83;;;;;;;5.22;99.87;100816.41;4989159;28;20075;-76
2021/11/13 02:10:27;;;;;;;50.53;21.75;;;;;;;5.25;100.00;100813.59;5006041;28;20082;-77
2021/11/13 02:12:54;;;;;;;50.55;22.42;;;;;;;5.32;100.00;100814.75;5009375;28;20031;-75
2021/11/13 02:15:20;;;;;;;39.15;20.05;;;;;;;5.41;100.00;100808.06;5006723;28;20174;-76
2021/11/13 02:17:46;;;;;;;49.00;22.30;;;;;;;5.45;100.00;100804.31;4991502;28;20051;-74
2021/11/13 02:20:21;;;;;;;47.63;20.67;;;;;;;5.60;100.00;100800.50;4926185;28;20035;-76
2021/11/13 02:22:47;;;;;;;48.00;20.88;;;;;;;5.71;100.00;100793.66;4923955;28;20067;-76
2021/11/13 02:25:22;;;;;;;44.85;21.58;;;;;;;5.76;100.00;100791.53;5009209;28;20392;-76
2021/11/13 02:27:48;;;;;;;48.88;20.98;;;;;;;5.74;100.00;100790.84;5010181;28;20298;-77
2021/11/13 02:30:15;;;;;;;49.40;20.80;;;;;;;5.79;100.00;100789.53;4933864;28;20050;-75
2021/11/13 02:32:41;;;;;;;49.95;22.35;;;;;;;5.77;100.00;100785.47;4921951;28;20031;-75
2021/11/13 02:35:10;;;;;;;52.47;21.42;;;;;;;5.84;100.00;100789.16;4991015;28;20058;-76
2021/11/13 02:37:36;;;;;;;49.42;21.80;;;;;;;5.80;100.00;100785.19;4944752;28;20037;-76
2021/11/13 02:40:04;;;;;;;47.60;21.70;;;;;;;5.81;100.00;100791.97;5007666;28;20054;-77
2021/11/13 02:42:30;;;;;;;48.90;21.80;;;;;;;5.75;100.00;100785.56;4991459;28;20039;-75
2021/11/13 02:44:56;;;;;;;52.75;22.92;;;;;;;5.85;100.00;100778.72;5009050;28;20154;-76
2021/11/13 02:47:22;;;;;;;48.53;21.88;;;;;;;5.88;100.00;100777.69;5008227;28;20523;-75
2021/11/13 02:49:47;;;;;;;55.22;22.80;;;;;;;5.99;100.00;100787.09;4925917;28;20499;-76
2021/11/13 02:52:13;;;;;;;48.13;21.55;;;;;;;5.95;100.00;100781.41;4926350;28;20580;-76
2021/11/13 02:54:47;;;;;;;44.33;21.45;;;;;;;6.04;100.00;100788.34;4997418;28;20032;-74
2021/11/13 02:57:13;;;;;;;47.65;21.25;;;;;;;6.06;100.00;100780.50;4995254;28;20098;-75
2021/11/13 02:59:47;;;;;;;60.00;22.67;;;;;;;6.08;100.00;100782.97;5034311;28;20497;-75
2021/11/13 03:02:12;;;;;;;46.13;21.33;;;;;;;5.97;100.00;100778.69;4992848;28;20031;-75
2021/11/13 03:04:38;;;;;;;45.58;21.52;;;;;;;6.06;100.00;100774.56;4994346;28;20752;-75
2021/11/13 03:07:06;;;;;;;49.95;22.38;;;;;;;6.04;100.00;100775.47;4990853;28;20379;-75
2021/11/13 03:09:32;;;;;;;43.83;20.58;;;;;;;6.10;100.00;100776.72;5012391;28;20554;-76
2021/11/13 03:11:57;;;;;;;54.25;21.88;;;;;;;6.03;100.00;100773.06;4993849;28;20043;-75
2021/11/13 03:14:23;;;;;;;53.45;21.90;;;;;;;6.16;100.00;100773.66;5030885;28;20025;-75
2021/11/13 03:16:48;;;;;;;55.53;21.73;;;;;;;6.22;100.00;100774.91;4935998;28;20039;-76
2021/11/13 03:19:14;;;;;;;51.42;22.08;;;;;;;6.19;100.00;100775.16;5024022;28;20116;-76
2021/11/13 03:21:41;;;;;;;46.05;20.33;;;;;;;6.12;100.00;100776.59;5005076;28;20046;-75
2021/11/13 03:24:07;;;;;;;46.40;20.13;;;;;;;6.23;100.00;100781.69;4957108;28;20036;-76
2021/11/13 03:26:33;;;;;;;47.13;21.17;;;;;;;6.20;100.00;100774.22;5013102;28;20478;-76
2021/11/13 03:29:05;;;;;;;47.15;20.45;;;;;;;6.20;100.00;100775.03;4953628;28;20059;-76
2021/11/13 03:31:31;;;;;;;48.22;20.33;;;;;;;6.17;100.00;100775.28;4949623;28;20047;-76
2021/11/13 03:34:02;;;;;;;38.67;18.23;;;;;;;6.23;100.00;100767.06;5029017;28;20098;-76
2021/11/13 03:36:27;;;;;;;47.20;19.23;;;;;;;6.34;100.00;100768.72;4997990;28;20040;-76
2021/11/13 03:38:54;;;;;;;42.40;18.45;;;;;;;6.44;100.00;100766.19;4993208;28;20540;-75
2021/11/13 03:41:21;;;;;;;44.92;18.38;;;;;;;6.82;100.00;100762.94;4957188;28;20101;-75
2021/11/13 03:43:47;;;;;;;52.55;17.60;;;;;;;6.93;100.00;100756.84;5007824;28;20043;-75
2021/11/13 03:46:13;;;;;;;37.33;15.85;;;;;;;6.82;100.00;100757.78;4942173;28;20046;-76
2021/11/13 03:48:39;;;;;;;42.33;17.38;;;;;;;6.97;100.00;100758.22;5008196;28;20365;-77
2021/11/13 03:51:05;;;;;;;50.22;16.48;;;;;;;7.25;100.00;100758.34;5024044;28;20037;-76
2021/11/13 03:53:31;;;;;;;39.65;15.35;;;;;;;7.24;100.00;100755.94;4948640;28;20089;-77
2021/11/13 03:55:56;;;;;;;41.90;16.17;;;;;;;7.14;100.00;100764.47;4991665;28;20119;-76
2021/11/13 03:58:22;;;;;;;40.92;15.85;;;;;;;7.18;100.00;100750.34;4974043;28;20126;-76
2021/11/13 04:00:50;;;;;;;38.70;15.98;;;;;;;7.21;100.00;100749.25;4984051;28;20035;-75
2021/11/13 04:03:16;;;;;;;32.35;14.45;;;;;;;7.09;100.00;100746.00;5018403;28;20052;-77
2021/11/13 04:05:41;;;;;;;36.55;15.68;;;;;;;7.34;100.00;100749.00;5016379;28;20032;-77
2021/11/13 04:08:06;;;;;;;33.03;15.70;;;;;;;7.30;100.00;100745.88;4948682;28;20043;-76
2021/11/13 04:10:32;;;;;;;38.25;15.55;;;;;;;7.26;100.00;100744.53;4982000;28;20111;-77
2021/11/13 04:12:58;;;;;;;43.53;15.73;;;;;;;7.25;100.00;100749.81;5008035;28;20040;-76
2021/11/13 04:15:24;;;;;;;42.15;16.23;;;;;;;7.21;100.00;100744.09;5001923;28;20043;-76
2021/11/13 04:17:50;;;;;;;42.47;17.20;;;;;;;7.27;100.00;100735.00;4995552;28;20035;-77
2021/11/13 04:20:18;;;;;;;35.65;14.23;;;;;;;7.30;100.00;100738.13;4948981;28;20066;-76
2021/11/13 04:22:45;;;;;;;35.13;16.63;;;;;;;7.28;100.00;100750.34;5025331;28;20417;-75
2021/11/13 04:25:11;;;;;;;36.53;14.10;;;;;;;7.30;100.00;100750.22;5015726;28;20028;-75
2021/11/13 04:27:38;;;;;;;38.35;17.20;;;;;;;7.26;100.00;100751.44;4958302;28;20383;-75
2021/11/13 04:30:07;;;;;;;35.10;15.43;;;;;;;7.31;100.00;100755.25;5022460;28;20036;-75
2021/11/13 04:32:34;;;;;;;31.55;14.85;;;;;;;7.45;100.00;100753.22;4966996;28;20038;-74
2021/11/13 04:37:52;;;;;;;33.80;14.57;;;;;;;7.34;100.00;100754.16;4999138;28;20036;-75
2021/11/13 04:40:22;;;;;;;33.88;14.82;;;;;;;7.32;100.00;100754.28;5017825;28;20051;-75
2021/11/13 04:42:48;;;;;;;26.95;14.07;;;;;;;7.40;100.00;100751.03;4924995;28;20035;-74
2021/11/13 04:45:14;;;;;;;34.88;15.05;;;;;;;7.31;100.00;100759.56;4926477;28;20395;-75
2021/11/13 04:47:40;;;;;;;32.03;15.88;;;;;;;7.44;100.00;100754.16;4956911;28;20484;-75
2021/11/13 04:50:07;;;;;;;40.08;15.40;;;;;;;7.40;100.00;100757.03;5015880;28;20038;-75
2021/11/13 04:52:34;;;;;;;34.25;14.52;;;;;;;7.45;100.00;100748.88;4967065;28;20037;-75
2021/11/13 04:54:59;;;;;;;36.08;15.13;;;;;;;7.38;100.00;100763.25;4947311;28;20021;-74
2021/11/13 04:57:25;;;;;;;29.50;13.57;;;;;;;7.34;100.00;100761.91;4943543;28;20067;-75
2021/11/13 04:59:50;;;;;;;38.50;15.55;;;;;;;7.45;100.00;100761.75;4989933;28;20487;-75
2021/11/13 05:02:16;;;;;;;31.42;15.15;;;;;;;7.40;100.00;100764.75;4970439;28;20524;-74
2021/11/13 05:04:41;;;;;;;34.10;14.63;;;;;;;7.41;100.00;100760.41;4988543;28;20440;-75
2021/11/13 05:07:07;;;;;;;30.90;14.95;;;;;;;7.55;100.00;100767.75;4923248;28;20036;-75
2021/11/13 05:09:32;;;;;;;35.22;14.70;;;;;;;7.55;100.00;100765.16;5009950;28;20027;-75
2021/11/13 05:11:58;;;;;;;33.25;14.88;;;;;;;7.55;100.00;100770.34;5010870;28;20558;-75
2021/11/13 05:14:23;;;;;;;33.78;14.77;;;;;;;7.62;100.00;100762.84;5005993;28;20049;-75
2021/11/13 05:16:48;;;;;;;31.45;14.63;;;;;;;7.63;100.00;100764.47;5015164;28;20043;-76
2021/11/13 05:19:14;;;;;;;27.10;13.07;;;;;;;7.68;100.00;100764.84;5006901;28;20035;-75
2021/11/13 05:21:40;;;;;;;29.15;13.48;;;;;;;7.68;100.00;100771.78;4993568;28;20036;-75
2021/11/13 05:24:05;;;;;;;31.02;13.68;;;;;;;7.67;100.00;100776.16;4932825;28;20035;-76
2021/11/13 05:26:31;;;;;;;27.33;12.43;;;;;;;7.65;100.00;100777.22;4967725;28;20110;-76
2021/11/13 05:28:56;;;;;;;28.27;13.05;;;;;;;7.62;100.00;100768.00;4993195;28;20036;-75
2021/11/13 05:31:22;;;;;;;30.23;13.48;;;;;;;7.74;100.00;100766.06;5007127;28;20035;-75
2021/11/13 05:33:47;;;;;;;27.85;12.75;;;;;;;7.63;100.00;100763.63;4927912;28;20040;-76
2021/11/13 05:36:13;;;;;;;25.38;13.02;;;;;;;7.65;100.00;100766.91;5009891;28;20048;-75
2021/11/13 05:38:38;;;;;;;30.27;13.57;;;;;;;7.58;100.00;100756.31;4932660;28;20042;-75
2021/11/13 05:41:04;;;;;;;26.92;13.63;;;;;;;7.63;100.00;100768.81;5016976;28;20032;-75
2021/11/13 05:43:30;;;;;;;31.50;13.85;;;;;;;7.59;100.00;100773.41;4953144;28;20055;-75
2021/11/13 05:45:55;;;;;;;27.50;13.80;;;;;;;7.59;100.00;100776.00;5000476;28;20035;-75
2021/11/13 05:48:22;;;;;;;30.85;13.23;;;;;;;7.55;100.00;100772.06;4973186;28;20644;-75
2021/11/13 05:50:48;;;;;;;26.13;12.60;;;;;;;7.59;100.00;100776.00;4926809;28;20297;-75
2021/11/13 05:53:13;;;;;;;25.60;12.98;;;;;;;7.78;100.00;100780.34;4990755;28;20028;-75
2021/11/13 05:55:40;;;;;;;28.10;12.15;;;;;;;7.69;100.00;100769.09;4934712;28;20050;-75
2021/11/13 05:58:05;;;;;;;26.35;12.70;;;;;;;7.71;100.00;100771.53;5009223;28;20037;-75
2021/11/13 06:00:31;;;;;;;20.63;11.70;;;;;;;7.74;100.00;100776.41;5018447;28;20091;-75
2021/11/13 06:02:57;;;;;;;24.85;12.82;;;;;;;7.80;100.00;100775.88;5009263;28;20787;-74
2021/11/13 06:05:23;;;;;;;20.67;11.65;;;;;;;7.92;100.00;100776.53;4930786;28;20066;-75
2021/11/13 06:07:49;;;;;;;22.20;11.45;;;;;;;7.92;100.00;100773.94;4958281;28;20031;-74
2021/11/13 06:10:16;;;;;;;20.88;11.07;;;;;;;7.83;100.00;100780.75;5014564;28;20043;-74
2021/11/13 06:12:42;;;;;;;22.17;12.27;;;;;;;7.88;100.00;100775.19;4992782;28;20031;-75
2021/11/13 06:15:09;;;;;;;19.30;11.65;;;;;;;7.96;100.00;100772.69;4967085;28;20042;-75
2021/11/13 06:17:35;;;;;;;20.98;11.07;;;;;;;7.97;100.00;100776.94;4933133;28;20094;-74
2021/11/13 06:20:03;;;;;;;22.65;10.88;;;;;;;7.94;100.00;100779.78;5010273;28;20147;-75
2021/11/13 06:22:28;;;;;;;21.02;10.48;;;;;;;7.86;100.00;100779.66;5019131;28;20024;-75
2021/11/13 06:24:55;;;;;;;17.77;10.30;;;;;;;7.87;100.00;100781.28;5021251;28;20070;-75
2021/11/13 06:27:21;;;;;;;21.05;11.20;;;;;;;7.97;100.00;100784.69;4995499;28;20036;-74
2021/11/13 06:29:46;;;;;;;17.75;10.02;;;;;;;7.90;100.00;100793.91;4952979;28;20470;-75
2021/11/13 06:32:12;;;;;;;19.75;10.82;;;;;;;7.88;100.00;100798.41;4967842;28;20571;-74
2021/11/13 06:34:39;;;;;;;20.65;10.88;;;;;;;7.92;100.00;100799.75;4994222;28;20048;-74
2021/11/13 06:37:06;;;;;;;19.98;9.82;;;;;;;7.85;100.00;100796.91;4984246;28;20041;-74
2021/11/13 06:39:32;;;;;;;18.63;10.45;;;;;;;7.87;100.00;100795.00;4952458;28;20071;-75
2021/11/13 06:41:57;;;;;;;17.02;10.45;;;;;;;7.97;100.00;100800.16;4931815;28;20050;-74
2021/11/13 06:44:23;;;;;;;22.02;11.23;;;;;;;7.93;100.00;100799.63;5008925;28;20082;-75
2021/11/13 06:46:48;;;;;;;16.50;10.50;;;;;;;8.03;100.00;100802.19;4948895;28;20054;-76
2021/11/13 06:49:14;;;;;;;21.80;9.50;;;;;;;8.10;100.00;100807.59;5008824;28;20058;-74
2021/11/13 06:51:41;;;;;;;16.10;10.23;;;;;;;8.09;100.00;100803.41;5038563;28;20036;-74
2021/11/13 06:54:07;;;;;;;17.27;8.98;;;;;;;8.12;100.00;100810.88;4956542;28;20031;-74
2021/11/13 06:56:33;;;;;;;18.65;10.00;;;;;;;8.05;100.00;100807.22;4933548;28;20517;-74
2021/11/13 06:58:58;;;;;;;13.65;8.77;;;;;;;8.10;100.00;100808.44;4935699;28;20211;-75
2021/11/13 07:01:23;;;;;;;15.27;8.82;;;;;;;7.99;100.00;100811.97;4989216;28;20047;-75
2021/11/13 07:03:49;;;;;;;14.07;8.63;;;;;;;8.01;100.00;100818.78;4927072;28;20040;-74
2021/11/13 07:06:15;;;;;;;18.67;9.32;;;;;;;8.01;100.00;100824.75;5005474;28;20370;-74
2021/11/13 07:08:40;;;;;;;15.43;9.18;;;;;;;7.95;100.00;100831.28;5000896;28;20057;-74
2021/11/13 07:11:06;;;;;;;14.52;8.68;;;;;;;7.95;100.00;100826.13;4936575;28;20503;-74
2021/11/13 07:13:32;;;;;;;16.92;9.70;;;;;;;8.09;100.00;100832.63;4941665;28;20039;-75
2021/11/13 07:15:57;;;;;;;15.73;9.88;;;;;;;8.05;100.00;100833.03;5018910;28;20041;-76
2021/11/13 07:18:23;;;;;;;18.75;10.07;;;;;;;8.00;100.00;100836.03;4967643;28;20447;-78
2021/11/13 07:20:55;;;;;;;15.82;9.40;;;;;;;7.93;100.00;100833.19;5008932;28;20054;-77
2021/11/13 07:23:21;;;;;;;18.00;9.07;;;;;;;7.99;100.00;100837.00;4927829;28;20044;-76
2021/11/13 07:25:48;;;;;;;15.68;9.20;;;;;;;8.07;100.00;100838.88;5008425;28;20042;-77
2021/11/13 07:28:15;;;;;;;15.38;10.00;;;;;;;7.98;100.00;100846.47;5007847;28;20050;-77
2021/11/13 07:30:42;;;;;;;20.02;10.05;;;;;;;7.97;100.00;100851.81;4999844;28;20020;-77
2021/11/13 07:33:12;;;;;;;16.00;9.70;;;;;;;8.15;100.00;100854.50;4931384;28;20040;-76
2021/11/13 07:35:40;;;;;;;15.02;8.93;;;;;;;8.21;100.00;100853.94;4989757;28;20090;-78
2021/11/13 07:38:07;;;;;;;10.93;7.78;;;;;;;8.16;100.00;100851.78;5007565;28;20039;-76
2021/11/13 07:40:33;;;;;;;13.02;8.18;;;;;;;8.11;100.00;100853.13;4934862;28;20039;-77
2021/11/13 07:43:00;;;;;;;13.35;8.57;;;;;;;8.06;100.00;100863.06;4954743;28;20049;-77
2021/11/13 07:45:30;;;;;;;14.23;8.98;;;;;;;8.17;100.00;100862.91;4944655;28;20028;-76
2021/11/13 07:47:57;;;;;;;40.00;18.90;;;;;;;8.18;100.00;100857.63;4926298;28;20036;-77
2021/11/13 07:50:24;;;;;;;16.13;10.25;;;;;;;8.17;100.00;100862.91;4993169;28;20039;-75
2021/11/13 07:52:50;;;;;;;18.08;11.38;;;;;;;8.14;100.00;100868.38;4999568;28;20043;-76
2021/11/13 07:55:17;;;;;;;28.08;15.30;;;;;;;8.10;100.00;100860.09;4991565;28;20040;-76
2021/11/13 07:57:43;;;;;;;82.45;40.30;;;;;;;8.15;100.00;100864.81;4969121;28;20445;-76
2021/11/13 08:00:12;;;;;;;55.65;25.42;;;;;;;8.26;100.00;100867.25;4924997;28;20092;-75
2021/11/13 08:02:40;;;;;;;166.55;78.97;;;;;;;8.28;100.00;100864.53;4926385;28;20036;-75
2021/11/13 08:05:07;;;;;;;17.50;10.95;;;;;;;8.34;100.00;100869.97;4945774;28;20038;-76
2021/11/13 08:07:32;;;;;;;19.52;12.70;;;;;;;8.39;100.00;100872.13;4990910;28;20043;-75
2021/11/13 08:09:58;;;;;;;29.00;17.73;;;;;;;8.39;100.00;100867.75;4931437;28;20043;-75
2021/11/13 08:12:23;;;;;;;23.17;14.65;;;;;;;8.43;100.00;100870.91;4991988;28;20113;-75
2021/11/13 08:14:49;;;;;;;14.82;8.75;;;;;;;8.53;100.00;100868.28;5000701;28;20138;-74
2021/11/13 08:17:14;;;;;;;17.73;10.88;;;;;;;8.56;100.00;100873.19;5007154;28;20441;-75
2021/11/13 08:19:40;;;;;;;14.10;9.40;;;;;;;8.69;100.00;100865.94;5007442;28;20044;-77
2021/11/13 08:22:05;;;;;;;14.05;9.20;;;;;;;8.72;100.00;100867.41;4935808;28;20051;-76
2021/11/13 08:24:31;;;;;;;14.73;9.95;;;;;;;8.88;100.00;100869.41;4989582;28;20044;-76
2021/11/13 08:26:56;;;;;;;119.35;54.67;;;;;;;8.81;100.00;100870.94;5007368;28;20093;-78
2021/11/13 08:29:25;;;;;;;25.05;14.80;;;;;;;8.85;100.00;100862.72;4931540;28;20039;-76
2021/11/13 08:31:51;;;;;;;16.45;9.73;;;;;;;8.92;100.00;100863.00;4917728;28;20035;-76
2021/11/13 08:34:16;;;;;;;16.98;9.45;;;;;;;8.96;100.00;100867.72;4925141;28;20036;-76
2021/11/13 08:36:42;;;;;;;12.50;8.38;;;;;;;9.00;100.00;100865.66;5006959;28;20107;-76
2021/11/13 08:39:08;;;;;;;12.15;8.20;;;;;;;8.96;100.00;100872.88;5024109;28;20079;-78
2021/11/13 08:41:34;;;;;;;13.20;7.85;;;;;;;8.98;100.00;100869.34;5020925;28;20075;-76
2021/11/13 08:44:01;;;;;;;27.30;19.77;;;;;;;8.95;100.00;100871.28;5006691;28;20039;-75
2021/11/13 08:46:26;;;;;;;21.35;14.68;;;;;;;8.95;100.00;100875.63;5005402;28;20055;-75
2021/11/13 08:48:52;;;;;;;12.35;7.57;;;;;;;8.89;100.00;100882.19;4987027;28;20170;-76
2021/11/13 08:51:18;;;;;;;10.73;7.07;;;;;;;8.95;100.00;100880.81;5006473;28;20114;-76
2021/11/13 08:53:47;;;;;;;12.25;7.57;;;;;;;9.01;100.00;100884.59;4923796;28;20489;-75
2021/11/13 08:56:14;;;;;;;10.32;6.57;;;;;;;9.08;100.00;100881.28;4919106;28;20193;-75
2021/11/13 08:58:39;;;;;;;9.00;6.32;;;;;;;9.08;100.00;100878.72;5008035;28;20032;-74
2021/11/13 09:01:06;;;;;;;10.20;6.82;;;;;;;9.13;100.00;100884.25;5012144;28;20090;-75
2021/11/13 09:03:39;;;;;;;9.02;6.32;;;;;;;9.19;100.00;100897.56;5006795;28;20036;-75
2021/11/13 09:06:08;;;;;;;9.55;6.72;;;;;;;9.12;100.00;100890.38;5006453;28;20048;-74
2021/11/13 09:08:36;;;;;;;8.95;6.40;;;;;;;9.17;100.00;100895.13;4921007;28;20337;-74
2021/11/13 09:11:03;;;;;;;9.77;5.93;;;;;;;9.14;100.00;100896.22;4982773;28;20036;-74
2021/11/13 09:13:29;;;;;;;10.80;7.10;;;;;;;9.19;100.00;100888.03;4924491;28;20050;-74
2021/11/13 09:16:03;;;;;;;10.63;6.35;;;;;;;9.30;100.00;100895.59;4922744;28;20040;-75
2021/11/13 09:18:30;;;;;;;10.35;6.28;;;;;;;9.33;100.00;100900.47;5021509;28;20091;-74
2021/11/13 09:20:55;;;;;;;9.73;5.88;;;;;;;9.39;100.00;100896.50;4923574;28;20040;-74
2021/11/13 09:23:22;;;;;;;7.20;5.25;;;;;;;9.47;100.00;100898.34;4922012;28;20106;-74
2021/11/13 09:25:47;;;;;;;12.50;5.43;;;;;;;9.54;100.00;100907.16;5006129;28;20039;-74
2021/11/13 09:28:13;;;;;;;7.78;5.38;;;;;;;9.58;100.00;100899.94;4979113;28;20492;-74
2021/11/13 09:30:40;;;;;;;11.70;6.32;;;;;;;9.55;100.00;100903.63;5022750;28;20070;-74
2021/11/13 09:33:08;;;;;;;9.70;5.80;;;;;;;9.67;100.00;100909.41;4927531;28;20403;-74
2021/11/13 09:35:35;;;;;;;8.15;5.30;;;;;;;9.64;100.00;100904.50;4924394;28;20036;-74
2021/11/13 09:38:01;;;;;;;8.63;6.05;;;;;;;9.75;100.00;100905.09;5005952;28;20089;-74
2021/11/13 09:40:28;;;;;;;11.95;5.68;;;;;;;9.85;100.00;100905.03;4989835;28;20047;-74
2021/11/13 09:42:57;;;;;;;8.05;5.55;;;;;;;9.81;99.96;100906.28;4923790;28;20520;-74
2021/11/13 09:45:23;;;;;;;8.85;5.85;;;;;;;9.83;99.36;100908.72;4921058;28;20058;-74
2021/11/13 09:47:51;;;;;;;8.77;5.53;;;;;;;9.85;99.34;100909.41;4927848;28;20039;-74
2021/11/13 09:50:19;;;;;;;10.20;6.07;;;;;;;9.83;99.27;100906.97;4918068;28;20043;-76
2021/11/13 09:52:45;;;;;;;8.80;6.38;;;;;;;9.86;99.30;100913.63;5015350;28;20031;-74
2021/11/13 09:55:14;;;;;;;7.50;5.50;;;;;;;9.82;99.41;100907.94;5010243;28;20046;-75
2021/11/13 09:57:40;;;;;;;13.73;6.55;;;;;;;9.80;99.11;100907.25;5009017;28;20123;-76
2021/11/13 10:00:19;;;;;;;9.10;5.70;;;;;;;9.85;98.85;100910.22;4994855;28;20067;-75
2021/11/13 10:02:46;;;;;;;9.50;6.63;;;;;;;9.82;99.27;100905.34;5009122;28;20035;-74
2021/11/13 10:05:13;;;;;;;15.73;7.45;;;;;;;9.84;99.41;100907.78;5032959;28;20562;-75
2021/11/13 10:07:43;;;;;;;10.85;6.68;;;;;;;9.99;99.37;100895.13;4992411;28;20373;-74
2021/11/13 10:10:12;;;;;;;13.80;6.90;;;;;;;10.03;98.38;100902.44;5007485;28;20036;-75
2021/11/13 10:12:41;;;;;;;12.73;7.07;;;;;;;9.98;98.89;100903.84;5005234;28;20131;-75
2021/11/13 10:15:25;;;;;;;12.98;7.60;;;;;;;9.90;99.36;100910.56;4997933;28;20037;-75
2021/11/13 10:18:04;;;;;;;14.43;7.95;;;;;;;9.89;100.00;100901.19;4927854;28;20304;-76
2021/11/13 10:20:30;;;;;;;11.43;7.40;;;;;;;9.94;99.77;100901.56;4988349;28;20138;-75
2021/11/13 10:22:55;;;;;;;14.82;7.70;;;;;;;10.01;99.59;100903.56;4924557;28;20031;-76
2021/11/13 10:25:21;;;;;;;14.85;7.60;;;;;;;10.04;99.05;100904.06;5010382;28;20032;-75
2021/11/13 10:28:13;;;;;;;12.73;7.60;;;;;;;10.02;98.33;100899.97;4958601;28;20046;-75
2021/11/13 10:30:42;;;;;;;11.27;7.28;;;;;;;9.92;98.80;100906.06;4955214;28;20500;-75
2021/11/13 10:33:08;;;;;;;16.15;8.02;;;;;;;10.01;99.79;100906.94;5015521;28;20042;-75
2021/11/13 10:35:49;;;;;;;20.08;8.05;;;;;;;10.07;99.53;100902.94;4989368;28;20062;-74
2021/11/13 10:38:20;;;;;;;14.90;8.88;;;;;;;10.20;99.03;100902.56;4923153;28;20078;-76
2021/11/13 10:40:54;;;;;;;18.95;10.13;;;;;;;10.08;98.70;100905.41;4990697;28;20036;-75
2021/11/13 10:43:29;;;;;;;13.27;8.30;;;;;;;10.15;99.07;100910.78;5007713;28;20043;-75
2021/11/13 10:46:05;;;;;;;13.95;7.63;;;;;;;10.17;98.54;100913.22;5008009;28;20032;-76
2021/11/13 10:48:34;;;;;;;15.30;8.95;;;;;;;10.15;98.08;100900.41;5017192;28;20207;-75
2021/11/13 10:51:05;;;;;;;15.15;9.32;;;;;;;10.30;98.59;100903.28;4925603;28;20047;-75
2021/11/13 10:53:32;;;;;;;15.73;9.50;;;;;;;10.26;98.55;100907.94;4927418;28;20039;-76
2021/11/13 10:56:13;;;;;;;15.18;8.50;;;;;;;10.48;97.77;100903.28;4948515;28;20533;-75
2021/11/13 10:58:54;;;;;;;16.63;9.35;;;;;;;10.33;97.74;100901.22;5026864;28;20412;-75
2021/11/13 11:01:22;;;;;;;12.38;8.07;;;;;;;10.28;97.32;100900.03;4992365;28;20448;-77
2021/11/13 11:03:49;;;;;;;20.00;7.97;;;;;;;10.49;97.23;100903.13;5018217;28;20051;-77
2021/11/13 11:06:22;;;;;;;14.88;7.72;;;;;;;10.36;96.41;100909.66;4990701;28;20031;-76
2021/11/13 11:08:48;;;;;;;13.57;8.10;;;;;;;10.42;97.16;100901.28;5019670;28;20035;-76
2021/11/13 11:11:26;;;;;;;15.20;8.32;;;;;;;10.33;97.29;100903.81;4991542;28;20038;-76
2021/11/13 11:13:53;;;;;;;12.52;7.90;;;;;;;10.27;97.79;100909.59;5026118;28;20063;-75
2021/11/13 11:16:42;;;;;;;22.17;11.73;;;;;;;10.33;97.92;100903.81;4927819;28;20024;-77